Latest Weather Observations for Oenpelli Airport

IDD60801

Issued at 10:01 pm CST Monday 6 July 2020 (issued every 10 minutes, with the page automatically refreshed every 10 minutes)

About weather observations | Map of weather stations | Latest weather observations for NT | Other Formats
Station Details ID: 014310 Name: OENPELLI AIRPORT Lat: -12.33 Lon: 133.01 Height: 7.5 m
Data from the previous 72 hours. | See also: Recent months at Oenpelli Airport
Date/Time
CST
Temp
°C
App
Temp
°C
Dew
Point
°C
Rel
Hum
%
Delta-T
°C
Wind Press
QNH
hPa
Press
MSL
hPa
Rain since
9am
mm
Dir  Spd
km/h
Gust
km/h
Spd
kts
Gust
kts
06/10:00pm 26.5 24.2 10.6 37 8.9 SE 13 22 7 12 1015.7 1015.6 0.0
06/09:30pm 26.6 25.1 10.7 37 8.9 SE 9 15 5 8 1015.5 1015.4 0.0
06/09:00pm 26.8 25.4 10.9 37 9.0 SE 9 13 5 7 1015.3 1015.2 0.0
06/08:30pm 27.0 26.0 11.1 37 9.0 SE 7 9 4 5 1015.1 1015.0 0.0
06/08:00pm 27.3 26.3 10.9 36 9.3 SE 7 9 4 5 1014.8 1014.7 0.0
06/07:30pm 27.4 26.6 11.0 36 9.3 SE 6 7 3 4 1014.5 1014.4 0.0
06/07:00pm 28.0 27.0 11.1 35 9.6 ESE 7 11 4 6 1014.1 1014.0 0.0
06/06:30pm 28.7 27.4 11.3 34 10.0 ESE 9 15 5 8 1013.6 1013.5 0.0
06/06:00pm 29.7 28.1 11.7 33 10.4 ESE 11 13 6 7 1013.3 1013.2 0.0
06/05:30pm 30.3 28.2 11.3 31 11.0 ESE 13 22 7 12 1013.0 1012.9 0.0
06/05:00pm 30.8 27.7 11.7 31 11.1 E 19 26 10 14 1012.8 1012.7 0.0
06/04:30pm 31.1 28.9 12.0 31 11.2 SE 15 24 8 13 1012.7 1012.6 0.0
06/04:00pm 31.6 29.3 11.9 30 11.6 ESE 15 22 8 12 1012.5 1012.4 0.0
06/03:30pm 31.2 29.1 11.1 29 11.6 SE 13 20 7 11 1012.4 1012.3 0.0
06/03:00pm 31.1 28.4 10.4 28 11.8 ESE 15 24 8 13 1012.6 1012.5 0.0
06/02:30pm 31.8 29.0 9.9 26 12.5 ESE 15 26 8 14 1012.7 1012.6 0.0
06/02:00pm 30.8 28.3 9.6 27 12.0 SE 13 20 7 11 1012.9 1012.8 0.0
06/01:30pm 30.4 27.3 8.7 26 12.0 SE 15 24 8 13 1013.4 1013.3 0.0
06/01:00pm 29.9 26.9 7.8 25 12.0 ESE 13 24 7 13 1013.9 1013.8 0.0
06/12:30pm 29.7 26.3 7.6 25 12.0 SE 15 24 8 13 1014.5 1014.4 0.0
06/12:00pm 28.9 25.3 6.9 25 11.7 ESE 15 28 8 15 1015.0 1014.9 0.0
06/11:30am 28.4 24.9 7.1 26 11.4 ESE 15 22 8 12 1015.6 1015.5 0.0
06/11:00am 27.5 23.7 7.4 28 10.7 SE 17 28 9 15 1015.9 1015.8 0.0
06/10:30am 26.8 22.9 8.7 32 9.8 SE 19 28 10 15 1016.0 1015.9 0.0
06/10:00am 26.8 23.5 9.6 34 9.5 ESE 17 30 9 16 1016.1 1016.0 0.0
06/09:30am 25.5 21.2 9.3 36 8.8 SE 22 43 12 23 1015.9 1015.8 0.0
06/09:00am 24.9 21.6 9.6 38 8.4 SE 17 30 9 16 1016.1 1016.0 0.0
06/08:30am 24.1 21.8 10.4 42 7.6 ESE 13 22 7 12 1015.9 1015.8 0.0
06/08:00am 23.8 21.6 10.8 44 7.2 SE 13 22 7 12 1015.4 1015.3 0.0
06/07:30am 23.4 21.1 11.8 48 6.5 SE 15 24 8 13 1015.2 1015.1 0.0
06/07:00am 23.3 20.8 12.3 50 6.3 ESE 17 28 9 15 1015.1 1015.0 0.0
06/06:30am 23.3 20.4 12.3 50 6.3 SE 19 32 10 17 1014.9 1014.8 0.0
06/06:00am 23.3 20.2 12.3 50 6.3 SE 20 32 11 17 1014.6 1014.5 0.0
06/05:30am 23.2 21.4 12.2 50 6.2 SE 13 26 7 14 1014.8 1014.7 0.0
06/05:00am 23.1 21.0 12.4 51 6.1 ESE 15 24 8 13 1014.8 1014.7 0.0
06/04:30am 23.0 21.4 12.9 53 5.8 SE 13 22 7 12 1014.8 1014.7 0.0
06/04:00am 22.1 21.3 14.0 60 4.7 ESE 11 15 6 8 1015.1 1015.0 0.0
06/03:30am 22.4 20.8 14.0 59 4.9 SE 15 20 8 11 1015.2 1015.1 0.0
06/03:00am 22.8 21.4 14.4 59 4.9 SE 15 24 8 13 1015.6 1015.5 0.0
06/02:30am 23.4 21.0 14.4 57 5.3 ESE 20 32 11 17 1015.9 1015.8 0.0
06/02:00am 23.5 23.0 14.8 58 5.2 SE 11 19 6 10 1016.0 1015.9 0.0
06/01:30am 23.2 22.6 14.7 58 5.0 ESE 11 17 6 9 1016.2 1016.1 0.0
06/01:00am 23.5 22.6 14.8 58 5.2 ESE 13 19 7 10 1016.3 1016.2 0.0
06/12:30am 23.9 23.0 14.9 57 5.4 ESE 13 19 7 10 1016.2 1016.1 0.0
06/12:00am 24.3 22.9 14.4 54 5.9 ESE 15 24 8 13 1016.0 1015.9 0.0
 
Date/Time
CST
Temp
°C
App
Temp
°C
Dew
Point
°C
Rel
Hum
%
Delta-T
°C
Wind Press
QNH
hPa
Press
MSL
hPa
Rain since
9am
mm
Dir  Spd
km/h
Gust
km/h
Spd
kts
Gust
kts
05/11:30pm 24.8 22.8 14.0 51 6.4 ESE 17 30 9 16 1015.7 1015.6 0.0
05/11:00pm 25.8 23.3 14.0 48 7.0 SE 20 35 11 19 1015.2 1015.1 0.0
05/10:30pm 25.9 25.7 13.7 47 7.2 SE 7 13 4 7 1015.1 1015.0 0.0
05/10:00pm 26.0 23.9 13.5 46 7.3 ESE 17 28 9 15 1015.0 1014.9 0.0
05/09:30pm 26.4 23.9 13.5 45 7.6 SE 19 32 10 17 1014.9 1014.8 0.0
05/09:00pm 27.1 25.3 13.4 42 8.1 SE 15 24 8 13 1014.5 1014.4 0.0
05/08:30pm 27.9 25.1 13.1 40 8.7 SE 20 32 11 17 1014.0 1013.9 0.0
05/08:00pm 28.5 26.1 12.8 38 9.2 SE 17 30 9 16 1013.7 1013.6 0.0
05/07:30pm 28.8 27.2 12.7 37 9.5 SE 13 22 7 12 1013.5 1013.4 0.0
05/07:00pm 29.0 27.0 12.8 36 9.5 SE 15 22 8 12 1013.0 1012.9 0.0
05/06:30pm 29.2 28.1 13.0 37 9.6 SE 11 17 6 9 1012.7 1012.6 0.0
05/06:00pm 29.7 28.4 12.6 35 10.1 SE 11 20 6 11 1012.2 1012.1 0.0
05/05:30pm 30.0 28.7 12.4 34 10.3 SE 11 17 6 9 1011.9 1011.8 0.0
05/05:00pm 30.2 29.1 13.0 34 10.2 SSE 11 20 6 11 1011.6 1011.5 0.0
05/04:30pm 29.9 29.4 12.8 35 10.1 SSE 7 17 4 9 1011.5 1011.4 0.0
05/04:00pm 30.7 29.9 13.0 33 10.5 ESE 9 15 5 8 1011.5 1011.4 0.0
05/03:30pm 31.1 29.8 12.5 32 11.0 ESE 11 20 6 11 1011.5 1011.4 0.0
05/03:00pm 31.1 29.8 12.5 32 11.0 E 11 22 6 12 1011.8 1011.7 0.0
05/02:30pm 31.3 29.9 12.2 31 11.3 SE 11 20 6 11 1012.1 1012.0 0.0
05/02:00pm 30.9 29.5 12.3 32 11.0 ESE 11 20 6 11 1012.5 1012.4 0.0
05/01:30pm 30.6 28.4 12.0 32 10.9 SE 15 28 8 15 1013.0 1012.9 0.0
05/01:00pm 30.1 27.8 11.6 32 10.7 ESE 15 24 8 13 1013.6 1013.5 0.0
05/12:30pm 29.9 26.7 11.9 33 10.5 E 20 30 11 16 1014.0 1013.9 0.0
05/12:00pm 29.3 26.5 11.4 33 10.3 ESE 17 26 9 14 1014.4 1014.3 0.0
05/11:30am 28.8 26.0 11.4 34 10.0 SE 17 28 9 15 1014.8 1014.7 0.0
05/11:00am 28.0 24.9 11.5 35 9.5 SE 19 30 10 16 1015.3 1015.2 0.0
05/10:30am 27.8 24.9 10.9 35 9.6 SE 17 26 9 14 1015.5 1015.4 0.0
05/10:00am 27.4 23.8 10.6 35 9.5 SE 20 35 11 19 1015.6 1015.5 0.0
05/09:30am 26.7 22.6 10.0 35 9.3 ESE 22 35 12 19 1015.5 1015.4 0.0
05/09:00am 25.6 21.8 9.0 35 9.0 ESE 19 35 10 19 1015.5 1015.4 0.0
05/08:30am 24.8 21.2 8.3 35 8.8 SE 17 26 9 14 1015.5 1015.4 0.0
05/08:00am 24.3 22.1 7.9 35 8.7 ESE 9 13 5 7 1015.3 1015.2 0.0
05/07:30am 23.2 21.0 7.7 37 8.1 ESE 9 17 5 9 1014.8 1014.7 0.0
05/07:00am 22.7 20.5 8.0 39 7.7 E 9 17 5 9 1014.5 1014.4 0.0
05/06:30am 22.4 20.8 8.1 40 7.5 E 6 11 3 6 1014.7 1014.6 0.0
05/06:00am 22.2 20.8 8.7 42 7.2 E 6 9 3 5 1014.5 1014.4 0.0
05/05:30am 22.9 20.6 9.0 41 7.4 SE 11 19 6 10 1014.5 1014.4 0.0
05/05:00am 21.9 21.0 9.1 44 6.8 SSE 4 6 2 3 1014.7 1014.6 0.0
05/04:30am 22.6 21.4 9.4 43 7.1 ESE 6 11 3 6 1014.7 1014.6 0.0
05/04:00am 23.1 20.6 9.8 43 7.2 E 13 22 7 12 1014.7 1014.6 0.0
05/03:30am 22.5 21.3 10.3 46 6.7 ESE 7 13 4 7 1015.0 1014.9 0.0
05/03:00am 22.6 21.6 10.4 46 6.7 E 6 11 3 6 1015.2 1015.1 0.0
05/02:30am 23.3 21.8 10.4 44 7.1 SE 9 20 5 11 1015.6 1015.5 0.0
05/02:00am 23.6 21.8 11.0 45 7.0 ESE 11 22 6 12 1015.8 1015.7 0.0
05/01:30am 23.7 22.5 11.7 47 6.8 SE 9 13 5 7 1016.1 1016.0 0.0
05/01:00am 24.3 22.4 11.9 45 7.0 ESE 13 24 7 13 1016.3 1016.2 0.0
05/12:30am 24.8 22.2 12.1 45 7.2 ESE 17 28 9 15 1016.5 1016.4 0.0
05/12:00am 25.3 23.1 13.2 47 7.0 SE 17 28 9 15 1016.8 1016.7 0.0
 
Date/Time
CST
Temp
°C
App
Temp
°C
Dew
Point
°C
Rel
Hum
%
Delta-T
°C
Wind Press
QNH
hPa
Press
MSL
hPa
Rain since
9am
mm
Dir  Spd
km/h
Gust
km/h
Spd
kts
Gust
kts
04/11:30pm 25.7 24.1 13.9 48 7.0 SE 15 26 8 14 1016.7 1016.6 0.0
04/11:00pm 26.1 24.1 14.9 50 6.7 SE 19 32 10 17 1016.5 1016.4 0.0
04/10:30pm 26.6 25.2 15.6 50 6.7 ESE 17 32 9 17 1016.3 1016.2 0.0
04/10:00pm 27.2 26.1 13.2 42 8.2 ESE 11 24 6 13 1016.0 1015.9 0.0
04/09:30pm 27.7 26.4 12.5 39 8.8 SE 11 19 6 10 1015.6 1015.5 0.0
04/09:00pm 27.5 26.8 11.9 38 9.0 SE 7 11 4 6 1015.4 1015.3 0.0
04/08:30pm 28.0 26.5 12.0 37 9.3 SE 11 17 6 9 1015.0 1014.9 0.0
04/08:00pm 28.0 26.9 12.0 37 9.3 SE 9 13 5 7 1014.7 1014.6 0.0
04/07:30pm 28.4 27.4 12.3 37 9.4 SE 9 15 5 8 1014.2 1014.1 0.0
04/07:00pm 28.6 27.5 12.1 36 9.6 ESE 9 15 5 8 1013.9 1013.8 0.0
04/06:30pm 29.4 27.1 11.9 34 10.2 ESE 15 26 8 14 1013.5 1013.4 0.0
04/06:00pm 30.1 28.3 12.1 33 10.5 ESE 13 22 7 12 1013.2 1013.1 0.0
04/05:30pm 30.9 28.4 12.3 32 11.0 ESE 17 24 9 13 1013.0 1012.9 0.0
04/05:00pm 31.4 28.3 12.2 30 11.3 E 20 30 11 16 1012.8 1012.7 0.0
04/04:30pm 31.9 28.8 11.7 29 11.8 SE 19 30 10 16 1012.9 1012.8 0.0
04/04:00pm 31.9 28.8 12.2 30 11.6 ESE 20 30 11 16 1012.9 1012.8 0.0
04/03:30pm 32.3 29.7 12.0 29 12.0 ESE 17 26 9 14 1012.9 1012.8 0.0
04/03:00pm 32.0 29.3 11.7 28 11.9 ESE 17 30 9 16 1012.9 1012.8 0.0
04/02:30pm 32.1 29.4 11.8 29 11.9 ESE 17 28 9 15 1013.2 1013.1 0.0
04/02:00pm 32.2 29.7 12.4 30 11.7 SE 17 32 9 17 1013.6 1013.5 0.0
04/01:30pm 31.9 28.7 13.2 32 11.2 SE 22 33 12 18 1014.2 1014.1 0.0
04/01:00pm 31.4 28.1 12.7 32 11.1 SE 22 33 12 18 1014.7 1014.6 0.0
04/12:30pm 31.4 27.1 12.2 30 11.3 ESE 26 39 14 21 1015.3 1015.2 0.0
04/12:00pm 31.4 28.2 13.2 33 10.9 ESE 22 37 12 20 1015.7 1015.6 0.0
04/11:30am 30.8 27.5 12.7 33 10.7 ESE 22 33 12 18 1016.0 1015.9 0.0
04/11:00am 30.2 25.7 12.6 34 10.4 ESE 28 43 15 23 1016.5 1016.4 0.0
04/10:30am 29.4 24.7 13.2 37 9.6 ESE 30 44 16 24 1016.5 1016.4 0.0
04/10:17am 29.2 25.0 13.4 38 9.4 ESE 28 46 15 25 1016.7 1016.6 0.0
04/10:00am 29.0 25.2 13.6 38 9.2 ESE 26 39 14 21 1016.6 1016.5 0.0
04/09:48am 28.8 24.8 14.2 40 8.8 ESE 28 50 15 27 1016.7 1016.6 0.0
04/09:30am 28.6 24.8 14.8 43 8.4 ESE 28 46 15 25 1016.8 1016.7 0.0
04/09:09am 27.7 23.8 14.3 43 8.0 SE 28 46 15 25 1016.8 1016.7 0.0
04/09:00am 27.8 25.0 14.4 43 8.0 SE 22 39 12 21 1016.7 1016.6 0.0
04/08:30am 27.1 25.1 13.8 44 7.9 SE 17 33 9 18 1016.3 1016.2 0.0
04/08:00am 26.2 25.4 14.0 47 7.2 SE 11 15 6 8 1015.8 1015.7 0.0
04/07:30am 25.5 24.8 14.3 50 6.6 ESE 11 20 6 11 1015.5 1015.4 0.0
04/07:00am 24.6 24.4 14.7 54 5.9 ESE 9 15 5 8 1015.2 1015.1 0.0
04/06:30am 23.4 24.3 15.2 60 4.9 ESE 4 6 2 3 1015.1 1015.0 0.0
04/06:00am 24.3 24.7 15.2 57 5.5 SE 7 11 4 6 1015.0 1014.9 0.0
04/05:30am 25.0 24.6 15.3 55 5.8 SE 11 17 6 9 1014.9 1014.8 0.0
04/05:00am 25.0 25.3 15.9 57 5.5 SE 9 17 5 9 1014.8 1014.7 0.0
04/04:30am 24.9 25.1 15.8 57 5.5 SE 9 13 5 7 1015.0 1014.9 0.0
04/04:00am 24.8 25.5 16.0 58 5.4 ESE 7 13 4 7 1015.3 1015.2 0.0
04/03:30am 25.1 25.5 16.3 58 5.4 ESE 9 15 5 8 1015.4 1015.3 0.0
04/03:00am 25.7 25.4 16.5 56 5.7 ESE 13 22 7 12 1015.8 1015.7 0.0
04/02:30am 26.0 26.0 17.1 58 5.5 ESE 13 24 7 13 1016.1 1016.0 0.0
04/02:00am 26.0 26.6 17.6 60 5.3 SE 11 17 6 9 1016.2 1016.1 0.0
04/01:30am 26.3 26.4 17.4 58 5.6 ESE 13 17 7 9 1016.2 1016.1 0.0
04/01:00am 27.1 26.4 17.3 55 6.1 ESE 17 28 9 15 1016.4 1016.3 0.0
04/12:30am 27.4 27.8 17.3 54 6.3 ESE 11 17 6 9 1016.5 1016.4 0.0
04/12:00am 27.8 27.8 17.3 52 6.6 ESE 13 17 7 9 1016.5 1016.4 0.0
 
Date/Time
CST
Temp
°C
App
Temp
°C
Dew
Point
°C
Rel
Hum
%
Delta-T
°C
Wind Press
QNH
hPa
Press
MSL
hPa
Rain since
9am
mm
Dir  Spd
km/h
Gust
km/h
Spd
kts
Gust
kts
03/11:30pm 28.2 27.4 17.1 51 7.0 ESE 17 28 9 15 1016.4 1016.3 0.0
03/11:00pm 28.4 29.0 18.5 55 6.3 ESE 13 20 7 11 1016.4 1016.3 0.0
03/10:30pm 26.8 29.4 19.2 63 4.9 ESE 4 6 2 3 1016.2 1016.1 0.0

Other formats

Comma delimited format used in spreadsheet applications
http://www.bom.gov.au/fwo/IDD60801/IDD60801.94110.axf

JavaScript Object Notation format (JSON) in row-major order
http://www.bom.gov.au/fwo/IDD60801/IDD60801.94110.json

Data quality

Most of these data are generated automatically and are frequently updated. Quality checks on data are not normally performed. It is possible for incorrect values to appear. Refer to information at About Latest Weather Observations and please check the disclaimer before using these data.